sensor_id;sensor_type;location;lat;lon;timestamp;temperature;humidity
11387;DHT22;5748;53.102;8.456;2022-07-10T00:01:33;18.20;53.50
11387;DHT22;5748;53.102;8.456;2022-07-10T00:04:00;18.20;53.70
11387;DHT22;5748;53.102;8.456;2022-07-10T00:06:27;18.20;53.60
11387;DHT22;5748;53.102;8.456;2022-07-10T00:08:54;18.30;53.60
11387;DHT22;5748;53.102;8.456;2022-07-10T00:11:37;18.30;53.80
11387;DHT22;5748;53.102;8.456;2022-07-10T00:14:05;18.30;54.50
11387;DHT22;5748;53.102;8.456;2022-07-10T00:16:32;18.30;53.90
11387;DHT22;5748;53.102;8.456;2022-07-10T00:19:00;18.30;53.70
11387;DHT22;5748;53.102;8.456;2022-07-10T00:21:45;18.30;53.60
11387;DHT22;5748;53.102;8.456;2022-07-10T00:24:12;18.40;54.00
11387;DHT22;5748;53.102;8.456;2022-07-10T00:26:41;18.40;53.70
11387;DHT22;5748;53.102;8.456;2022-07-10T00:29:08;18.40;53.70
11387;DHT22;5748;53.102;8.456;2022-07-10T00:31:35;18.40;53.60
11387;DHT22;5748;53.102;8.456;2022-07-10T00:34:02;18.40;53.70
11387;DHT22;5748;53.102;8.456;2022-07-10T00:36:40;18.50;54.30
11387;DHT22;5748;53.102;8.456;2022-07-10T00:39:08;18.40;54.00
11387;DHT22;5748;53.102;8.456;2022-07-10T00:41:54;18.50;53.70
11387;DHT22;5748;53.102;8.456;2022-07-10T00:44:21;18.40;54.40
11387;DHT22;5748;53.102;8.456;2022-07-10T00:46:48;18.50;53.70
11387;DHT22;5748;53.102;8.456;2022-07-10T00:49:15;18.50;53.80
11387;DHT22;5748;53.102;8.456;2022-07-10T00:51:42;18.50;54.10
11387;DHT22;5748;53.102;8.456;2022-07-10T00:54:10;18.40;53.90
11387;DHT22;5748;53.102;8.456;2022-07-10T00:56:37;18.40;53.70
11387;DHT22;5748;53.102;8.456;2022-07-10T00:59:06;18.50;54.00
11387;DHT22;5748;53.102;8.456;2022-07-10T01:01:33;18.50;53.90
11387;DHT22;5748;53.102;8.456;2022-07-10T01:04:00;18.40;53.80
11387;DHT22;5748;53.102;8.456;2022-07-10T01:06:27;18.40;54.00
11387;DHT22;5748;53.102;8.456;2022-07-10T01:08:54;18.40;53.90
11387;DHT22;5748;53.102;8.456;2022-07-10T01:11:21;18.40;54.20
11387;DHT22;5748;53.102;8.456;2022-07-10T01:13:54;18.30;54.10
11387;DHT22;5748;53.102;8.456;2022-07-10T01:16:23;18.30;54.20
11387;DHT22;5748;53.102;8.456;2022-07-10T01:18:50;18.20;54.10
11387;DHT22;5748;53.102;8.456;2022-07-10T01:21:25;18.20;54.00
11387;DHT22;5748;53.102;8.456;2022-07-10T01:23:53;18.10;54.50
11387;DHT22;5748;53.102;8.456;2022-07-10T01:26:21;18.10;54.10
11387;DHT22;5748;53.102;8.456;2022-07-10T01:28:50;18.20;54.30
11387;DHT22;5748;53.102;8.456;2022-07-10T01:31:18;18.20;54.50
11387;DHT22;5748;53.102;8.456;2022-07-10T01:33:45;18.10;54.40
11387;DHT22;5748;53.102;8.456;2022-07-10T01:36:13;18.10;54.30
11387;DHT22;5748;53.102;8.456;2022-07-10T01:38:42;18.10;54.40
11387;DHT22;5748;53.102;8.456;2022-07-10T01:41:09;18.00;54.40
11387;DHT22;5748;53.102;8.456;2022-07-10T01:43:36;18.10;54.40
11387;DHT22;5748;53.102;8.456;2022-07-10T01:46:08;18.10;54.40
11387;DHT22;5748;53.102;8.456;2022-07-10T01:48:37;18.10;54.40
11387;DHT22;5748;53.102;8.456;2022-07-10T01:51:05;18.20;54.60
11387;DHT22;5748;53.102;8.456;2022-07-10T01:53:32;18.10;54.50
11387;DHT22;5748;53.102;8.456;2022-07-10T01:56:04;18.10;54.40
11387;DHT22;5748;53.102;8.456;2022-07-10T01:58:33;18.10;54.60
11387;DHT22;5748;53.102;8.456;2022-07-10T02:01:00;18.10;54.40
11387;DHT22;5748;53.102;8.456;2022-07-10T02:03:27;18.10;54.80
11387;DHT22;5748;53.102;8.456;2022-07-10T02:06:12;18.10;54.50
11387;DHT22;5748;53.102;8.456;2022-07-10T02:08:58;18.10;54.40
11387;DHT22;5748;53.102;8.456;2022-07-10T02:11:26;18.10;55.20
11387;DHT22;5748;53.102;8.456;2022-07-10T02:13:53;18.10;55.00
11387;DHT22;5748;53.102;8.456;2022-07-10T02:16:20;18.00;54.90
11387;DHT22;5748;53.102;8.456;2022-07-10T02:18:48;18.00;54.60
11387;DHT22;5748;53.102;8.456;2022-07-10T02:21:15;18.10;54.60
11387;DHT22;5748;53.102;8.456;2022-07-10T02:23:42;18.00;54.40
11387;DHT22;5748;53.102;8.456;2022-07-10T02:26:10;18.00;54.30
11387;DHT22;5748;53.102;8.456;2022-07-10T02:28:38;17.90;54.50
11387;DHT22;5748;53.102;8.456;2022-07-10T02:31:05;18.10;54.40
11387;DHT22;5748;53.102;8.456;2022-07-10T02:33:48;17.80;54.40
11387;DHT22;5748;53.102;8.456;2022-07-10T02:36:14;17.80;55.00
11387;DHT22;5748;53.102;8.456;2022-07-10T02:38:41;17.70;54.40
11387;DHT22;5748;53.102;8.456;2022-07-10T02:41:08;17.60;54.10
11387;DHT22;5748;53.102;8.456;2022-07-10T02:43:41;17.60;54.30
11387;DHT22;5748;53.102;8.456;2022-07-10T02:46:08;17.50;54.60
11387;DHT22;5748;53.102;8.456;2022-07-10T02:48:35;17.50;54.40
11387;DHT22;5748;53.102;8.456;2022-07-10T02:51:02;17.40;54.40
11387;DHT22;5748;53.102;8.456;2022-07-10T02:53:35;17.40;55.10
11387;DHT22;5748;53.102;8.456;2022-07-10T02:56:02;17.30;54.90
11387;DHT22;5748;53.102;8.456;2022-07-10T02:58:34;17.30;54.60
11387;DHT22;5748;53.102;8.456;2022-07-10T03:01:02;17.40;55.10
11387;DHT22;5748;53.102;8.456;2022-07-10T03:03:33;17.20;55.30
11387;DHT22;5748;53.102;8.456;2022-07-10T03:06:00;17.20;55.50
11387;DHT22;5748;53.102;8.456;2022-07-10T03:08:27;17.20;55.00
11387;DHT22;5748;53.102;8.456;2022-07-10T03:10:54;17.20;55.30
11387;DHT22;5748;53.102;8.456;2022-07-10T03:13:20;17.20;55.50
11387;DHT22;5748;53.102;8.456;2022-07-10T03:15:48;17.20;55.50
11387;DHT22;5748;53.102;8.456;2022-07-10T03:18:16;17.20;55.50
11387;DHT22;5748;53.102;8.456;2022-07-10T03:20:43;17.20;55.70
11387;DHT22;5748;53.102;8.456;2022-07-10T03:23:10;17.30;55.90
11387;DHT22;5748;53.102;8.456;2022-07-10T03:25:38;17.30;55.90
11387;DHT22;5748;53.102;8.456;2022-07-10T03:28:05;17.30;55.70
11387;DHT22;5748;53.102;8.456;2022-07-10T03:30:32;17.30;55.70
11387;DHT22;5748;53.102;8.456;2022-07-10T03:33:01;17.30;55.80
11387;DHT22;5748;53.102;8.456;2022-07-10T03:35:30;17.40;56.00
11387;DHT22;5748;53.102;8.456;2022-07-10T03:37:57;17.40;55.70
11387;DHT22;5748;53.102;8.456;2022-07-10T03:40:24;17.40;55.50
11387;DHT22;5748;53.102;8.456;2022-07-10T03:42:52;17.60;55.70
11387;DHT22;5748;53.102;8.456;2022-07-10T03:45:19;17.50;55.40
11387;DHT22;5748;53.102;8.456;2022-07-10T03:47:46;17.50;55.40
11387;DHT22;5748;53.102;8.456;2022-07-10T03:50:13;17.60;55.50
11387;DHT22;5748;53.102;8.456;2022-07-10T03:52:51;17.50;55.60
11387;DHT22;5748;53.102;8.456;2022-07-10T03:55:40;17.50;55.80
11387;DHT22;5748;53.102;8.456;2022-07-10T03:58:07;17.50;56.00
11387;DHT22;5748;53.102;8.456;2022-07-10T04:00:33;17.50;55.40
11387;DHT22;5748;53.102;8.456;2022-07-10T04:03:03;17.50;55.60
11387;DHT22;5748;53.102;8.456;2022-07-10T04:05:32;17.60;55.60
11387;DHT22;5748;53.102;8.456;2022-07-10T04:08:14;17.60;55.70
11387;DHT22;5748;53.102;8.456;2022-07-10T04:10:41;17.60;56.00
11387;DHT22;5748;53.102;8.456;2022-07-10T04:13:08;17.60;55.50
11387;DHT22;5748;53.102;8.456;2022-07-10T04:15:35;17.60;55.50
11387;DHT22;5748;53.102;8.456;2022-07-10T04:18:02;17.60;55.40
11387;DHT22;5748;53.102;8.456;2022-07-10T04:20:36;17.60;55.40
11387;DHT22;5748;53.102;8.456;2022-07-10T04:23:03;17.70;55.70
11387;DHT22;5748;53.102;8.456;2022-07-10T04:25:31;17.60;55.20
11387;DHT22;5748;53.102;8.456;2022-07-10T04:27:58;17.60;55.40
11387;DHT22;5748;53.102;8.456;2022-07-10T04:30:26;17.60;55.40
11387;DHT22;5748;53.102;8.456;2022-07-10T04:32:53;17.60;55.40
11387;DHT22;5748;53.102;8.456;2022-07-10T04:35:20;17.50;55.40
11387;DHT22;5748;53.102;8.456;2022-07-10T04:37:47;17.50;55.50
11387;DHT22;5748;53.102;8.456;2022-07-10T04:40:24;17.50;55.50
11387;DHT22;5748;53.102;8.456;2022-07-10T04:42:52;17.50;56.10
11387;DHT22;5748;53.102;8.456;2022-07-10T04:45:19;17.40;55.50
11387;DHT22;5748;53.102;8.456;2022-07-10T04:47:46;17.40;55.70
11387;DHT22;5748;53.102;8.456;2022-07-10T04:50:14;17.50;55.70
11387;DHT22;5748;53.102;8.456;2022-07-10T04:52:54;17.40;55.70
11387;DHT22;5748;53.102;8.456;2022-07-10T04:55:21;17.40;56.20
11387;DHT22;5748;53.102;8.456;2022-07-10T04:57:59;17.50;56.00
11387;DHT22;5748;53.102;8.456;2022-07-10T05:00:26;17.40;56.50
11387;DHT22;5748;53.102;8.456;2022-07-10T05:02:53;17.50;56.00
11387;DHT22;5748;53.102;8.456;2022-07-10T05:05:20;17.50;56.20
11387;DHT22;5748;53.102;8.456;2022-07-10T05:07:47;17.50;56.20
11387;DHT22;5748;53.102;8.456;2022-07-10T05:10:14;17.60;56.20
11387;DHT22;5748;53.102;8.456;2022-07-10T05:12:41;17.60;56.40
11387;DHT22;5748;53.102;8.456;2022-07-10T05:15:41;17.70;56.60
11387;DHT22;5748;53.102;8.456;2022-07-10T05:18:20;17.60;57.00
11387;DHT22;5748;53.102;8.456;2022-07-10T05:20:48;17.70;56.90
11387;DHT22;5748;53.102;8.456;2022-07-10T05:23:15;17.70;56.40
11387;DHT22;5748;53.102;8.456;2022-07-10T05:25:42;17.70;56.60
11387;DHT22;5748;53.102;8.456;2022-07-10T05:28:23;17.80;56.60
11387;DHT22;5748;53.102;8.456;2022-07-10T05:31:06;17.80;57.00
11387;DHT22;5748;53.102;8.456;2022-07-10T05:33:39;17.80;57.00
11387;DHT22;5748;53.102;8.456;2022-07-10T05:36:07;17.90;57.00
11387;DHT22;5748;53.102;8.456;2022-07-10T05:38:35;17.90;56.80
11387;DHT22;5748;53.102;8.456;2022-07-10T05:41:07;18.00;56.90
11387;DHT22;5748;53.102;8.456;2022-07-10T05:43:35;18.00;57.00
11387;DHT22;5748;53.102;8.456;2022-07-10T05:46:10;18.10;57.00
11387;DHT22;5748;53.102;8.456;2022-07-10T05:48:37;18.20;57.80
11387;DHT22;5748;53.102;8.456;2022-07-10T05:51:04;18.30;58.00
11387;DHT22;5748;53.102;8.456;2022-07-10T05:53:31;18.50;58.20
11387;DHT22;5748;53.102;8.456;2022-07-10T05:56:00;18.70;58.20
11387;DHT22;5748;53.102;8.456;2022-07-10T05:58:28;18.80;58.10
11387;DHT22;5748;53.102;8.456;2022-07-10T06:00:55;19.00;57.70
11387;DHT22;5748;53.102;8.456;2022-07-10T06:03:24;19.10;57.50
11387;DHT22;5748;53.102;8.456;2022-07-10T06:05:51;19.10;57.20
11387;DHT22;5748;53.102;8.456;2022-07-10T06:08:18;19.20;57.00
11387;DHT22;5748;53.102;8.456;2022-07-10T06:10:45;19.30;56.90
11387;DHT22;5748;53.102;8.456;2022-07-10T06:13:13;19.40;56.90
11387;DHT22;5748;53.102;8.456;2022-07-10T06:15:40;19.40;56.80
11387;DHT22;5748;53.102;8.456;2022-07-10T06:18:18;19.40;56.70
11387;DHT22;5748;53.102;8.456;2022-07-10T06:20:47;19.50;56.90
11387;DHT22;5748;53.102;8.456;2022-07-10T06:23:14;19.50;56.80
11387;DHT22;5748;53.102;8.456;2022-07-10T06:25:41;19.50;56.80
11387;DHT22;5748;53.102;8.456;2022-07-10T06:28:08;19.60;57.00
11387;DHT22;5748;53.102;8.456;2022-07-10T06:30:35;19.70;58.00
11387;DHT22;5748;53.102;8.456;2022-07-10T06:33:02;19.90;59.10
11387;DHT22;5748;53.102;8.456;2022-07-10T06:35:29;20.20;59.90
11387;DHT22;5748;53.102;8.456;2022-07-10T06:37:57;20.60;60.40
11387;DHT22;5748;53.102;8.456;2022-07-10T06:40:25;21.00;60.80
11387;DHT22;5748;53.102;8.456;2022-07-10T06:42:52;21.50;61.20
11387;DHT22;5748;53.102;8.456;2022-07-10T06:45:19;21.90;59.90
11387;DHT22;5748;53.102;8.456;2022-07-10T06:47:47;22.20;59.20
11387;DHT22;5748;53.102;8.456;2022-07-10T06:50:26;22.40;58.30
11387;DHT22;5748;53.102;8.456;2022-07-10T06:52:56;22.70;58.10
11387;DHT22;5748;53.102;8.456;2022-07-10T06:55:23;23.00;58.60
11387;DHT22;5748;53.102;8.456;2022-07-10T06:57:51;23.30;59.20
11387;DHT22;5748;53.102;8.456;2022-07-10T07:00:18;23.60;58.70
11387;DHT22;5748;53.102;8.456;2022-07-10T07:02:52;23.90;58.60
11387;DHT22;5748;53.102;8.456;2022-07-10T07:05:19;24.30;58.50
11387;DHT22;5748;53.102;8.456;2022-07-10T07:07:46;24.60;58.20
11387;DHT22;5748;53.102;8.456;2022-07-10T07:10:15;24.90;57.70
11387;DHT22;5748;53.102;8.456;2022-07-10T07:12:43;25.20;56.90
11387;DHT22;5748;53.102;8.456;2022-07-10T07:15:10;25.40;56.40
11387;DHT22;5748;53.102;8.456;2022-07-10T07:17:41;25.50;54.90
11387;DHT22;5748;53.102;8.456;2022-07-10T07:20:32;25.50;52.90
11387;DHT22;5748;53.102;8.456;2022-07-10T07:23:17;25.30;52.80
11387;DHT22;5748;53.102;8.456;2022-07-10T07:25:54;25.10;52.20
11387;DHT22;5748;53.102;8.456;2022-07-10T07:28:22;24.80;51.90
11387;DHT22;5748;53.102;8.456;2022-07-10T07:30:53;24.50;52.10
11387;DHT22;5748;53.102;8.456;2022-07-10T07:33:39;24.20;52.00
11387;DHT22;5748;53.102;8.456;2022-07-10T07:36:07;23.90;50.80
11387;DHT22;5748;53.102;8.456;2022-07-10T07:38:34;23.70;53.20
11387;DHT22;5748;53.102;8.456;2022-07-10T07:41:02;23.70;54.80
11387;DHT22;5748;53.102;8.456;2022-07-10T07:43:29;23.90;56.70
11387;DHT22;5748;53.102;8.456;2022-07-10T07:45:56;24.20;56.00
11387;DHT22;5748;53.102;8.456;2022-07-10T07:48:23;24.40;55.10
11387;DHT22;5748;53.102;8.456;2022-07-10T07:50:50;24.60;53.50
11387;DHT22;5748;53.102;8.456;2022-07-10T07:53:17;24.60;53.30
11387;DHT22;5748;53.102;8.456;2022-07-10T07:55:44;24.70;52.70
11387;DHT22;5748;53.102;8.456;2022-07-10T07:58:14;24.60;52.30
11387;DHT22;5748;53.102;8.456;2022-07-10T08:00:41;24.60;52.20
11387;DHT22;5748;53.102;8.456;2022-07-10T08:03:08;24.50;52.40
11387;DHT22;5748;53.102;8.456;2022-07-10T08:05:35;24.40;52.10
11387;DHT22;5748;53.102;8.456;2022-07-10T08:08:03;24.30;52.30
11387;DHT22;5748;53.102;8.456;2022-07-10T08:10:34;24.30;51.90
11387;DHT22;5748;53.102;8.456;2022-07-10T08:13:01;24.20;52.10
11387;DHT22;5748;53.102;8.456;2022-07-10T08:15:51;24.20;52.00
11387;DHT22;5748;53.102;8.456;2022-07-10T08:18:47;24.10;50.50
11387;DHT22;5748;53.102;8.456;2022-07-10T08:21:15;24.00;50.10
11387;DHT22;5748;53.102;8.456;2022-07-10T08:23:42;23.90;51.40
11387;DHT22;5748;53.102;8.456;2022-07-10T08:26:09;23.90;51.60
11387;DHT22;5748;53.102;8.456;2022-07-10T08:28:38;22.70;51.00
11387;DHT22;5748;53.102;8.456;2022-07-10T08:31:07;23.80;52.10
11387;DHT22;5748;53.102;8.456;2022-07-10T08:33:35;23.90;51.70
11387;DHT22;5748;53.102;8.456;2022-07-10T08:36:02;23.90;51.20
11387;DHT22;5748;53.102;8.456;2022-07-10T08:38:37;23.90;51.50
11387;DHT22;5748;53.102;8.456;2022-07-10T08:41:32;23.90;51.20
11387;DHT22;5748;53.102;8.456;2022-07-10T08:44:01;24.00;51.40
11387;DHT22;5748;53.102;8.456;2022-07-10T08:46:31;24.10;52.40
11387;DHT22;5748;53.102;8.456;2022-07-10T08:49:12;24.30;52.30
11387;DHT22;5748;53.102;8.456;2022-07-10T08:51:46;24.40;51.80
11387;DHT22;5748;53.102;8.456;2022-07-10T08:54:19;24.70;53.10
11387;DHT22;5748;53.102;8.456;2022-07-10T08:56:59;24.80;51.70
11387;DHT22;5748;53.102;8.456;2022-07-10T08:59:29;25.00;51.20
11387;DHT22;5748;53.102;8.456;2022-07-10T09:01:58;25.10;51.30
11387;DHT22;5748;53.102;8.456;2022-07-10T09:04:26;25.30;51.30
11387;DHT22;5748;53.102;8.456;2022-07-10T09:06:55;25.40;51.10
11387;DHT22;5748;53.102;8.456;2022-07-10T09:09:22;25.50;51.20
11387;DHT22;5748;53.102;8.456;2022-07-10T09:11:55;25.60;51.50
11387;DHT22;5748;53.102;8.456;2022-07-10T09:14:32;25.80;51.70
11387;DHT22;5748;53.102;8.456;2022-07-10T09:17:01;26.20;51.10
11387;DHT22;5748;53.102;8.456;2022-07-10T09:19:29;26.60;52.30
11387;DHT22;5748;53.102;8.456;2022-07-10T09:22:09;26.80;51.40
11387;DHT22;5748;53.102;8.456;2022-07-10T09:24:45;26.90;49.20
11387;DHT22;5748;53.102;8.456;2022-07-10T09:30:31;26.90;47.90
11387;DHT22;5748;53.102;8.456;2022-07-10T09:36:04;26.80;47.70
11387;DHT22;5748;53.102;8.456;2022-07-10T09:38:52;26.50;47.90
11387;DHT22;5748;53.102;8.456;2022-07-10T09:41:27;26.30;47.70
11387;DHT22;5748;53.102;8.456;2022-07-10T09:43:56;26.10;48.60
11387;DHT22;5748;53.102;8.456;2022-07-10T09:46:26;26.00;49.80
11387;DHT22;5748;53.102;8.456;2022-07-10T09:49:02;26.00;50.00
11387;DHT22;5748;53.102;8.456;2022-07-10T09:51:36;25.90;49.30
11387;DHT22;5748;53.102;8.456;2022-07-10T09:54:06;25.90;48.80
11387;DHT22;5748;53.102;8.456;2022-07-10T09:56:39;25.80;48.30
11387;DHT22;5748;53.102;8.456;2022-07-10T09:59:10;25.70;47.70
11387;DHT22;5748;53.102;8.456;2022-07-10T10:01:42;25.50;48.10
11387;DHT22;5748;53.102;8.456;2022-07-10T10:04:12;25.30;47.90
11387;DHT22;5748;53.102;8.456;2022-07-10T10:06:41;25.10;48.10
11387;DHT22;5748;53.102;8.456;2022-07-10T10:09:12;25.00;48.30
11387;DHT22;5748;53.102;8.456;2022-07-10T10:11:44;24.80;48.40
11387;DHT22;5748;53.102;8.456;2022-07-10T10:14:15;26.00;49.20
11387;DHT22;5748;53.102;8.456;2022-07-10T10:16:46;24.50;47.60
11387;DHT22;5748;53.102;8.456;2022-07-10T10:19:14;24.30;47.90
11387;DHT22;5748;53.102;8.456;2022-07-10T10:22:09;24.10;48.30
11387;DHT22;5748;53.102;8.456;2022-07-10T10:24:39;24.00;48.80
11387;DHT22;5748;53.102;8.456;2022-07-10T10:27:08;24.00;49.10
11387;DHT22;5748;53.102;8.456;2022-07-10T10:29:36;23.90;48.80
11387;DHT22;5748;53.102;8.456;2022-07-10T10:32:04;23.90;49.20
11387;DHT22;5748;53.102;8.456;2022-07-10T10:34:39;23.90;49.40
11387;DHT22;5748;53.102;8.456;2022-07-10T10:37:32;23.90;49.50
11387;DHT22;5748;53.102;8.456;2022-07-10T10:40:01;23.90;48.80
11387;DHT22;5748;53.102;8.456;2022-07-10T10:42:34;23.90;49.30
11387;DHT22;5748;53.102;8.456;2022-07-10T10:45:22;23.90;49.40
11387;DHT22;5748;53.102;8.456;2022-07-10T10:48:01;23.90;49.30
11387;DHT22;5748;53.102;8.456;2022-07-10T10:50:36;23.80;49.70
11387;DHT22;5748;53.102;8.456;2022-07-10T10:53:12;23.80;49.70
11387;DHT22;5748;53.102;8.456;2022-07-10T10:55:52;23.80;49.60
11387;DHT22;5748;53.102;8.456;2022-07-10T10:58:51;23.70;49.90
11387;DHT22;5748;53.102;8.456;2022-07-10T11:01:25;23.70;50.00
11387;DHT22;5748;53.102;8.456;2022-07-10T11:04:13;23.70;50.00
11387;DHT22;5748;53.102;8.456;2022-07-10T11:06:43;23.70;49.70
11387;DHT22;5748;53.102;8.456;2022-07-10T11:09:24;23.70;50.20
11387;DHT22;5748;53.102;8.456;2022-07-10T11:12:04;23.60;50.20
11387;DHT22;5748;53.102;8.456;2022-07-10T11:14:33;23.70;50.60
11387;DHT22;5748;53.102;8.456;2022-07-10T11:17:02;23.80;50.90
11387;DHT22;5748;53.102;8.456;2022-07-10T11:19:31;23.90;50.80
11387;DHT22;5748;53.102;8.456;2022-07-10T11:22:29;23.90;50.70
11387;DHT22;5748;53.102;8.456;2022-07-10T11:25:24;24.10;50.70
11387;DHT22;5748;53.102;8.456;2022-07-10T11:28:06;24.20;50.90
11387;DHT22;5748;53.102;8.456;2022-07-10T11:30:45;24.30;50.50
11387;DHT22;5748;53.102;8.456;2022-07-10T11:33:14;24.30;50.20
11387;DHT22;5748;53.102;8.456;2022-07-10T11:35:44;24.30;50.10
11387;DHT22;5748;53.102;8.456;2022-07-10T11:38:12;24.30;50.00
11387;DHT22;5748;53.102;8.456;2022-07-10T11:40:39;24.30;49.90
11387;DHT22;5748;53.102;8.456;2022-07-10T11:43:07;24.20;49.90
11387;DHT22;5748;53.102;8.456;2022-07-10T11:45:39;24.10;49.90
11387;DHT22;5748;53.102;8.456;2022-07-10T11:48:06;24.10;49.90
11387;DHT22;5748;53.102;8.456;2022-07-10T11:50:35;24.00;49.90
11387;DHT22;5748;53.102;8.456;2022-07-10T11:53:03;23.90;50.10
11387;DHT22;5748;53.102;8.456;2022-07-10T11:55:31;23.80;50.20
11387;DHT22;5748;53.102;8.456;2022-07-10T11:58:14;23.70;50.10
11387;DHT22;5748;53.102;8.456;2022-07-10T12:00:42;23.70;50.20
11387;DHT22;5748;53.102;8.456;2022-07-10T12:03:17;23.60;50.20
11387;DHT22;5748;53.102;8.456;2022-07-10T12:05:47;23.50;50.20
11387;DHT22;5748;53.102;8.456;2022-07-10T12:08:14;23.40;50.20
11387;DHT22;5748;53.102;8.456;2022-07-10T12:10:41;23.30;50.50
11387;DHT22;5748;53.102;8.456;2022-07-10T12:13:10;23.20;50.90
11387;DHT22;5748;53.102;8.456;2022-07-10T12:15:40;23.20;51.50
11387;DHT22;5748;53.102;8.456;2022-07-10T12:18:15;23.30;52.00
11387;DHT22;5748;53.102;8.456;2022-07-10T12:20:43;23.40;52.40
11387;DHT22;5748;53.102;8.456;2022-07-10T12:23:13;23.60;52.30
11387;DHT22;5748;53.102;8.456;2022-07-10T12:25:42;23.60;51.90
11387;DHT22;5748;53.102;8.456;2022-07-10T12:28:10;23.70;51.90
11387;DHT22;5748;53.102;8.456;2022-07-10T12:30:41;23.70;51.60
11387;DHT22;5748;53.102;8.456;2022-07-10T12:33:10;23.80;51.90
11387;DHT22;5748;53.102;8.456;2022-07-10T12:35:49;23.80;51.90
11387;DHT22;5748;53.102;8.456;2022-07-10T12:38:18;23.90;51.80
11387;DHT22;5748;53.102;8.456;2022-07-10T12:40:47;23.90;52.20
11387;DHT22;5748;53.102;8.456;2022-07-10T12:43:24;24.20;52.80
11387;DHT22;5748;53.102;8.456;2022-07-10T12:46:13;24.30;52.20
11387;DHT22;5748;53.102;8.456;2022-07-10T12:48:42;24.50;52.00
11387;DHT22;5748;53.102;8.456;2022-07-10T12:51:26;24.60;51.80
11387;DHT22;5748;53.102;8.456;2022-07-10T12:53:55;24.70;50.80
11387;DHT22;5748;53.102;8.456;2022-07-10T12:56:33;24.70;51.00
11387;DHT22;5748;53.102;8.456;2022-07-10T12:59:02;24.70;51.30
11387;DHT22;5748;53.102;8.456;2022-07-10T13:01:43;24.60;51.00
11387;DHT22;5748;53.102;8.456;2022-07-10T13:04:11;24.40;51.70
11387;DHT22;5748;53.102;8.456;2022-07-10T13:06:39;24.20;51.20
11387;DHT22;5748;53.102;8.456;2022-07-10T13:09:20;24.10;51.60
11387;DHT22;5748;53.102;8.456;2022-07-10T13:11:48;24.00;52.60
11387;DHT22;5748;53.102;8.456;2022-07-10T13:14:15;23.90;52.10
11387;DHT22;5748;53.102;8.456;2022-07-10T13:16:44;23.90;52.30
11387;DHT22;5748;53.102;8.456;2022-07-10T13:19:11;23.80;52.90
11387;DHT22;5748;53.102;8.456;2022-07-10T13:21:38;23.80;52.70
11387;DHT22;5748;53.102;8.456;2022-07-10T13:24:06;23.70;52.60
11387;DHT22;5748;53.102;8.456;2022-07-10T13:26:33;23.80;52.80
11387;DHT22;5748;53.102;8.456;2022-07-10T13:29:00;23.80;53.10
11387;DHT22;5748;53.102;8.456;2022-07-10T13:31:27;23.80;53.00
11387;DHT22;5748;53.102;8.456;2022-07-10T13:33:56;23.80;53.00
11387;DHT22;5748;53.102;8.456;2022-07-10T13:36:23;23.90;53.00
11387;DHT22;5748;53.102;8.456;2022-07-10T13:38:50;24.00;53.10
11387;DHT22;5748;53.102;8.456;2022-07-10T13:41:18;24.00;53.20
11387;DHT22;5748;53.102;8.456;2022-07-10T13:43:45;24.10;53.20
11387;DHT22;5748;53.102;8.456;2022-07-10T13:46:12;24.20;53.30
11387;DHT22;5748;53.102;8.456;2022-07-10T13:48:39;24.30;53.40
11387;DHT22;5748;53.102;8.456;2022-07-10T13:51:08;24.50;53.40
11387;DHT22;5748;53.102;8.456;2022-07-10T13:53:35;24.60;53.40
11387;DHT22;5748;53.102;8.456;2022-07-10T13:56:04;24.70;52.90
11387;DHT22;5748;53.102;8.456;2022-07-10T13:58:34;24.90;52.80
11387;DHT22;5748;53.102;8.456;2022-07-10T14:01:02;25.00;51.90
11387;DHT22;5748;53.102;8.456;2022-07-10T14:03:30;25.00;51.70
11387;DHT22;5748;53.102;8.456;2022-07-10T14:05:57;25.00;51.70
11387;DHT22;5748;53.102;8.456;2022-07-10T14:08:25;25.00;51.20
11387;DHT22;5748;53.102;8.456;2022-07-10T14:10:52;25.00;51.00
11387;DHT22;5748;53.102;8.456;2022-07-10T14:13:19;24.90;50.80
11387;DHT22;5748;53.102;8.456;2022-07-10T14:15:46;24.90;50.90
11387;DHT22;5748;53.102;8.456;2022-07-10T14:18:13;24.80;50.90
11387;DHT22;5748;53.102;8.456;2022-07-10T14:21:00;24.70;50.70
11387;DHT22;5748;53.102;8.456;2022-07-10T14:23:31;24.70;50.70
11387;DHT22;5748;53.102;8.456;2022-07-10T14:25:58;24.60;50.70
11387;DHT22;5748;53.102;8.456;2022-07-10T14:28:26;24.60;50.80
11387;DHT22;5748;53.102;8.456;2022-07-10T14:30:53;24.50;50.70
11387;DHT22;5748;53.102;8.456;2022-07-10T14:33:21;24.50;50.70
11387;DHT22;5748;53.102;8.456;2022-07-10T14:35:48;24.50;50.90
11387;DHT22;5748;53.102;8.456;2022-07-10T14:38:15;24.40;50.70
11387;DHT22;5748;53.102;8.456;2022-07-10T14:40:43;24.30;50.50
11387;DHT22;5748;53.102;8.456;2022-07-10T14:43:11;24.30;50.60
11387;DHT22;5748;53.102;8.456;2022-07-10T14:45:38;24.30;50.50
11387;DHT22;5748;53.102;8.456;2022-07-10T14:48:05;24.20;50.40
11387;DHT22;5748;53.102;8.456;2022-07-10T14:50:33;24.20;50.50
11387;DHT22;5748;53.102;8.456;2022-07-10T14:53:00;24.10;50.50
11387;DHT22;5748;53.102;8.456;2022-07-10T14:55:28;24.10;50.60
11387;DHT22;5748;53.102;8.456;2022-07-10T14:57:58;24.00;50.60
11387;DHT22;5748;53.102;8.456;2022-07-10T15:00:25;24.00;50.40
11387;DHT22;5748;53.102;8.456;2022-07-10T15:02:52;23.90;50.80
11387;DHT22;5748;53.102;8.456;2022-07-10T15:05:19;24.00;50.90
11387;DHT22;5748;53.102;8.456;2022-07-10T15:07:46;23.90;50.90
11387;DHT22;5748;53.102;8.456;2022-07-10T15:10:13;23.90;50.90
11387;DHT22;5748;53.102;8.456;2022-07-10T15:12:41;23.80;50.90
11387;DHT22;5748;53.102;8.456;2022-07-10T15:15:11;23.80;51.10
11387;DHT22;5748;53.102;8.456;2022-07-10T15:17:39;23.90;51.20
11387;DHT22;5748;53.102;8.456;2022-07-10T15:20:07;23.90;51.30
11387;DHT22;5748;53.102;8.456;2022-07-10T15:22:35;23.90;51.40
11387;DHT22;5748;53.102;8.456;2022-07-10T15:25:02;23.90;51.30
11387;DHT22;5748;53.102;8.456;2022-07-10T15:27:30;23.90;51.80
11387;DHT22;5748;53.102;8.456;2022-07-10T15:29:57;23.90;51.00
11387;DHT22;5748;53.102;8.456;2022-07-10T15:32:25;23.90;50.80
11387;DHT22;5748;53.102;8.456;2022-07-10T15:34:52;23.90;50.90
11387;DHT22;5748;53.102;8.456;2022-07-10T15:37:19;23.90;51.00
11387;DHT22;5748;53.102;8.456;2022-07-10T15:39:48;23.90;51.00
11387;DHT22;5748;53.102;8.456;2022-07-10T15:42:16;23.90;51.00
11387;DHT22;5748;53.102;8.456;2022-07-10T15:44:43;23.80;50.70
11387;DHT22;5748;53.102;8.456;2022-07-10T15:47:10;23.80;50.70
11387;DHT22;5748;53.102;8.456;2022-07-10T15:49:39;23.70;50.60
11387;DHT22;5748;53.102;8.456;2022-07-10T15:52:07;23.70;50.70
11387;DHT22;5748;53.102;8.456;2022-07-10T15:54:37;23.70;50.70
11387;DHT22;5748;53.102;8.456;2022-07-10T15:57:05;23.60;50.50
11387;DHT22;5748;53.102;8.456;2022-07-10T15:59:32;23.60;50.70
11387;DHT22;5748;53.102;8.456;2022-07-10T16:02:00;23.50;50.80
11387;DHT22;5748;53.102;8.456;2022-07-10T16:04:28;23.50;50.90
11387;DHT22;5748;53.102;8.456;2022-07-10T16:06:56;23.50;51.00
11387;DHT22;5748;53.102;8.456;2022-07-10T16:09:23;23.50;51.00
11387;DHT22;5748;53.102;8.456;2022-07-10T16:11:51;23.50;51.10